This is the latest recevied weather packets stored in our database for station/object DL8NDG-13. If no packets are shown the sender has not sent any weather packets the latest 10 day(s).
| Time | Temp. | Humidity | Pressure | Rain* | Wind** | Luminosity | Snow |
|---|---|---|---|---|---|---|---|
| 1777979763 | 22.78° C | 52% | 1005 hPa | 0 mm | - | 251 W/m² | - |
| 1777970731 | 19.44° C | 66% | 1006.4 hPa | 0 mm | - | 111 W/m² | - |
| 1777969828 | 18.89° C | 67% | 1006.5 hPa | 0 mm | - | 77 W/m² | - |
| 1777967120 | 17.78° C | 71% | 1006.7 hPa | 0 mm | - | 230 W/m² | - |
| 1777957284 | 14.44° C | 80% | 1007.5 hPa | 0 mm | - | 67 W/m² | - |
| 1777952743 | 14.44° C | 79% | 1007.6 hPa | 0 mm | - | 0 W/m² | - |
| 1777950946 | 14.44° C | 78% | 1007.7 hPa | 0 mm | - | 0 W/m² | - |
| 1777943730 | 15.56° C | 74% | 1008.4 hPa | 0 mm | - | 0 W/m² | - |
| 1777932905 | 16.67° C | 67% | 1009.9 hPa | 0 mm | - | 0 W/m² | - |
| 1777920359 | 19.44° C | 56% | 1009.8 hPa | 0 mm | - | 0 W/m² | - |
| 1777916746 | 20.56° C | 52% | 1009.9 hPa | 0 mm | - | 42 W/m² | - |
| 1777914943 | 21.11° C | 50% | 1009.9 hPa | 0 mm | - | 81 W/m² | - |
| 1777914046 | 21.67° C | 48% | 1009.8 hPa | 0 mm | - | 81 W/m² | - |
| 1777907796 | 22.78° C | 43% | 1010.2 hPa | 0 mm | - | 272 W/m² | - |
| 1777895111 | 22.22° C | 43% | 1011.8 hPa | 0 mm | - | 468 W/m² | - |
| 1777887959 | 21.11° C | 46% | 1013 hPa | 0 mm | - | 891 W/m² | - |
| 1777883437 | 18.33° C | 53% | 1013.3 hPa | 0 mm | - | 127 W/m² | - |
| 1777881693 | 17.22° C | 57% | 1013.4 hPa | 0 mm | - | 137 W/m² | - |
| 1777880733 | 16.11° C | 62% | 1013.5 hPa | 0 mm | - | 141 W/m² | - |
| 1777873514 | 11.11° C | 78% | 1013.5 hPa | 0 mm | - | 42 W/m² | - |
| 1777867267 | 10.56° C | 78% | 1012.9 hPa | 0 mm | - | 5 W/m² | - |
| 1777864554 | 11.11° C | 75% | 1013.1 hPa | 0 mm | - | 0 W/m² | - |
| 1777862753 | 11.11° C | 75% | 1013.2 hPa | 0 mm | - | 0 W/m² | - |
| 1777861851 | 11.11° C | 75% | 1013 hPa | 0 mm | - | 0 W/m² | - |
| 1777860049 | 11.11° C | 74% | 1013 hPa | 0 mm | - | 0 W/m² | - |
* Rain latest hour (hover to see other rain measurements)
** Current wind speed in m/s (hover to see current wind gust speed)